sensor_id;sensor_type;location;lat;lon;timestamp;P1;durP1;ratioP1;P2;durP2;ratioP2
57241;SDS011;43095;53.302;5.786;2022-07-23T00:00:03;4.55;;;2.55;;
57241;SDS011;43095;53.302;5.786;2022-07-23T00:02:50;4.75;;;2.67;;
57241;SDS011;43095;53.302;5.786;2022-07-23T00:05:34;4.53;;;2.63;;
57241;SDS011;43095;53.302;5.786;2022-07-23T00:08:19;7.75;;;2.85;;
57241;SDS011;43095;53.302;5.786;2022-07-23T00:11:05;5.28;;;2.20;;
57241;SDS011;43095;53.302;5.786;2022-07-23T00:13:49;3.88;;;2.33;;
57241;SDS011;43095;53.302;5.786;2022-07-23T00:16:34;7.53;;;3.60;;
57241;SDS011;43095;53.302;5.786;2022-07-23T00:19:18;5.32;;;2.65;;
57241;SDS011;43095;53.302;5.786;2022-07-23T00:22:06;5.30;;;3.30;;
57241;SDS011;43095;53.302;5.786;2022-07-23T00:24:51;6.55;;;2.90;;
57241;SDS011;43095;53.302;5.786;2022-07-23T00:27:35;4.32;;;2.95;;
57241;SDS011;43095;53.302;5.786;2022-07-23T00:30:20;5.93;;;2.53;;
57241;SDS011;43095;53.302;5.786;2022-07-23T00:33:06;5.38;;;2.78;;
57241;SDS011;43095;53.302;5.786;2022-07-23T00:35:51;6.00;;;3.10;;
57241;SDS011;43095;53.302;5.786;2022-07-23T00:38:36;8.13;;;3.35;;
57241;SDS011;43095;53.302;5.786;2022-07-23T00:41:20;6.65;;;3.42;;
57241;SDS011;43095;53.302;5.786;2022-07-23T00:44:15;3.90;;;2.95;;
57241;SDS011;43095;53.302;5.786;2022-07-23T00:47:02;5.45;;;3.13;;
57241;SDS011;43095;53.302;5.786;2022-07-23T00:49:47;6.50;;;3.30;;
57241;SDS011;43095;53.302;5.786;2022-07-23T00:52:32;4.88;;;3.10;;
57241;SDS011;43095;53.302;5.786;2022-07-23T00:55:17;5.70;;;3.33;;
57241;SDS011;43095;53.302;5.786;2022-07-23T00:58:01;3.45;;;2.22;;
57241;SDS011;43095;53.302;5.786;2022-07-23T01:00:46;7.07;;;2.85;;
57241;SDS011;43095;53.302;5.786;2022-07-23T01:03:30;6.03;;;3.50;;
57241;SDS011;43095;53.302;5.786;2022-07-23T01:06:15;4.25;;;2.95;;
57241;SDS011;43095;53.302;5.786;2022-07-23T01:09:00;8.52;;;2.90;;
57241;SDS011;43095;53.302;5.786;2022-07-23T01:11:44;4.97;;;3.25;;
57241;SDS011;43095;53.302;5.786;2022-07-23T01:14:29;8.30;;;4.20;;
57241;SDS011;43095;53.302;5.786;2022-07-23T01:17:13;5.45;;;3.63;;
57241;SDS011;43095;53.302;5.786;2022-07-23T01:19:58;6.13;;;4.38;;
57241;SDS011;43095;53.302;5.786;2022-07-23T01:22:43;7.38;;;4.78;;
57241;SDS011;43095;53.302;5.786;2022-07-23T01:25:28;8.23;;;4.70;;
57241;SDS011;43095;53.302;5.786;2022-07-23T01:28:15;7.97;;;4.97;;
57241;SDS011;43095;53.302;5.786;2022-07-23T01:31:00;7.15;;;5.00;;
57241;SDS011;43095;53.302;5.786;2022-07-23T01:33:49;6.93;;;5.20;;
57241;SDS011;43095;53.302;5.786;2022-07-23T01:36:34;6.43;;;4.47;;
57241;SDS011;43095;53.302;5.786;2022-07-23T01:39:21;6.80;;;4.50;;
57241;SDS011;43095;53.302;5.786;2022-07-23T01:42:07;11.27;;;5.28;;
57241;SDS011;43095;53.302;5.786;2022-07-23T01:44:52;8.27;;;4.60;;
57241;SDS011;43095;53.302;5.786;2022-07-23T01:47:38;6.32;;;4.63;;
57241;SDS011;43095;53.302;5.786;2022-07-23T01:50:23;7.43;;;4.35;;
57241;SDS011;43095;53.302;5.786;2022-07-23T01:53:31;9.63;;;4.40;;
57241;SDS011;43095;53.302;5.786;2022-07-23T01:56:16;9.18;;;4.32;;
57241;SDS011;43095;53.302;5.786;2022-07-23T01:59:03;10.02;;;5.22;;
57241;SDS011;43095;53.302;5.786;2022-07-23T02:01:47;9.05;;;4.68;;
57241;SDS011;43095;53.302;5.786;2022-07-23T02:04:34;11.95;;;5.60;;
57241;SDS011;43095;53.302;5.786;2022-07-23T02:07:20;7.93;;;5.75;;
57241;SDS011;43095;53.302;5.786;2022-07-23T02:10:05;10.82;;;5.05;;
57241;SDS011;43095;53.302;5.786;2022-07-23T02:12:50;11.27;;;5.22;;
57241;SDS011;43095;53.302;5.786;2022-07-23T02:15:35;7.43;;;5.22;;
57241;SDS011;43095;53.302;5.786;2022-07-23T02:18:19;6.88;;;4.40;;
57241;SDS011;43095;53.302;5.786;2022-07-23T02:21:04;7.05;;;5.45;;
57241;SDS011;43095;53.302;5.786;2022-07-23T02:23:49;14.70;;;5.78;;
57241;SDS011;43095;53.302;5.786;2022-07-23T02:26:33;12.00;;;6.28;;
57241;SDS011;43095;53.302;5.786;2022-07-23T02:29:21;10.07;;;5.80;;
57241;SDS011;43095;53.302;5.786;2022-07-23T02:32:06;9.75;;;6.20;;
57241;SDS011;43095;53.302;5.786;2022-07-23T02:34:50;10.70;;;5.53;;
57241;SDS011;43095;53.302;5.786;2022-07-23T02:37:37;13.02;;;5.85;;
57241;SDS011;43095;53.302;5.786;2022-07-23T02:40:21;11.98;;;6.80;;
57241;SDS011;43095;53.302;5.786;2022-07-23T02:43:05;10.68;;;5.85;;
57241;SDS011;43095;53.302;5.786;2022-07-23T02:45:50;9.52;;;5.72;;
57241;SDS011;43095;53.302;5.786;2022-07-23T02:48:35;13.23;;;6.22;;
57241;SDS011;43095;53.302;5.786;2022-07-23T02:51:19;10.85;;;6.38;;
57241;SDS011;43095;53.302;5.786;2022-07-23T02:54:10;10.45;;;5.40;;
57241;SDS011;43095;53.302;5.786;2022-07-23T02:56:55;10.88;;;5.82;;
57241;SDS011;43095;53.302;5.786;2022-07-23T02:59:39;13.27;;;6.95;;
57241;SDS011;43095;53.302;5.786;2022-07-23T03:02:24;13.15;;;6.15;;
57241;SDS011;43095;53.302;5.786;2022-07-23T03:05:09;12.90;;;5.07;;
57241;SDS011;43095;53.302;5.786;2022-07-23T03:07:53;11.75;;;6.22;;
57241;SDS011;43095;53.302;5.786;2022-07-23T03:10:38;8.70;;;5.32;;
57241;SDS011;43095;53.302;5.786;2022-07-23T03:13:23;11.05;;;5.05;;
57241;SDS011;43095;53.302;5.786;2022-07-23T03:16:07;13.13;;;5.53;;
57241;SDS011;43095;53.302;5.786;2022-07-23T03:18:54;10.70;;;5.05;;
57241;SDS011;43095;53.302;5.786;2022-07-23T03:21:38;8.05;;;5.47;;
57241;SDS011;43095;53.302;5.786;2022-07-23T03:24:24;8.23;;;5.20;;
57241;SDS011;43095;53.302;5.786;2022-07-23T03:27:29;8.48;;;5.32;;
57241;SDS011;43095;53.302;5.786;2022-07-23T03:30:14;8.75;;;5.35;;
57241;SDS011;43095;53.302;5.786;2022-07-23T03:32:59;8.93;;;5.13;;
57241;SDS011;43095;53.302;5.786;2022-07-23T03:35:43;8.70;;;4.75;;
57241;SDS011;43095;53.302;5.786;2022-07-23T03:38:36;6.82;;;4.30;;
57241;SDS011;43095;53.302;5.786;2022-07-23T03:41:21;8.10;;;4.95;;
57241;SDS011;43095;53.302;5.786;2022-07-23T03:44:06;9.13;;;4.35;;
57241;SDS011;43095;53.302;5.786;2022-07-23T03:46:51;16.20;;;5.18;;
57241;SDS011;43095;53.302;5.786;2022-07-23T03:49:36;8.65;;;4.05;;
57241;SDS011;43095;53.302;5.786;2022-07-23T03:52:20;10.70;;;4.78;;
57241;SDS011;43095;53.302;5.786;2022-07-23T03:55:05;10.32;;;4.00;;
57241;SDS011;43095;53.302;5.786;2022-07-23T03:57:50;7.68;;;4.03;;
57241;SDS011;43095;53.302;5.786;2022-07-23T04:00:35;8.20;;;4.60;;
57241;SDS011;43095;53.302;5.786;2022-07-23T04:03:20;5.55;;;3.40;;
57241;SDS011;43095;53.302;5.786;2022-07-23T04:06:06;6.32;;;3.53;;
57241;SDS011;43095;53.302;5.786;2022-07-23T04:08:50;7.57;;;3.15;;
57241;SDS011;43095;53.302;5.786;2022-07-23T04:11:35;5.43;;;3.45;;
57241;SDS011;43095;53.302;5.786;2022-07-23T04:14:20;7.07;;;3.53;;
57241;SDS011;43095;53.302;5.786;2022-07-23T04:17:04;7.68;;;3.63;;
57241;SDS011;43095;53.302;5.786;2022-07-23T04:19:49;5.03;;;2.75;;
57241;SDS011;43095;53.302;5.786;2022-07-23T04:22:38;6.45;;;2.83;;
57241;SDS011;43095;53.302;5.786;2022-07-23T04:25:23;4.25;;;3.08;;
57241;SDS011;43095;53.302;5.786;2022-07-23T04:28:08;13.73;;;2.75;;
57241;SDS011;43095;53.302;5.786;2022-07-23T04:30:55;8.27;;;2.90;;
57241;SDS011;43095;53.302;5.786;2022-07-23T04:33:41;5.70;;;2.88;;
57241;SDS011;43095;53.302;5.786;2022-07-23T04:36:26;9.52;;;2.35;;
57241;SDS011;43095;53.302;5.786;2022-07-23T04:39:10;9.18;;;3.15;;
57241;SDS011;43095;53.302;5.786;2022-07-23T04:41:55;6.53;;;2.63;;
57241;SDS011;43095;53.302;5.786;2022-07-23T04:44:40;5.07;;;2.15;;
57241;SDS011;43095;53.302;5.786;2022-07-23T04:47:25;11.43;;;3.40;;
57241;SDS011;43095;53.302;5.786;2022-07-23T04:50:10;7.32;;;2.05;;
57241;SDS011;43095;53.302;5.786;2022-07-23T04:52:57;5.45;;;1.73;;
57241;SDS011;43095;53.302;5.786;2022-07-23T04:55:42;5.43;;;1.85;;
57241;SDS011;43095;53.302;5.786;2022-07-23T04:58:27;5.50;;;1.48;;
57241;SDS011;43095;53.302;5.786;2022-07-23T05:01:11;3.72;;;1.20;;
57241;SDS011;43095;53.302;5.786;2022-07-23T05:03:56;2.45;;;1.15;;
57241;SDS011;43095;53.302;5.786;2022-07-23T05:06:44;5.13;;;1.08;;
57241;SDS011;43095;53.302;5.786;2022-07-23T05:09:28;2.67;;;0.90;;
57241;SDS011;43095;53.302;5.786;2022-07-23T05:12:13;2.83;;;1.13;;
57241;SDS011;43095;53.302;5.786;2022-07-23T05:15:00;2.30;;;1.27;;
57241;SDS011;43095;53.302;5.786;2022-07-23T05:17:45;4.35;;;0.95;;
57241;SDS011;43095;53.302;5.786;2022-07-23T05:20:34;3.58;;;0.77;;
57241;SDS011;43095;53.302;5.786;2022-07-23T05:23:18;2.33;;;0.80;;
57241;SDS011;43095;53.302;5.786;2022-07-23T05:26:05;2.97;;;0.70;;
57241;SDS011;43095;53.302;5.786;2022-07-23T05:28:50;0.93;;;0.40;;
57241;SDS011;43095;53.302;5.786;2022-07-23T05:31:37;3.28;;;0.47;;
57241;SDS011;43095;53.302;5.786;2022-07-23T05:34:22;3.53;;;0.52;;
57241;SDS011;43095;53.302;5.786;2022-07-23T05:37:06;2.47;;;0.93;;
57241;SDS011;43095;53.302;5.786;2022-07-23T05:39:51;2.13;;;0.63;;
57241;SDS011;43095;53.302;5.786;2022-07-23T05:42:37;2.05;;;0.68;;
57241;SDS011;43095;53.302;5.786;2022-07-23T05:45:22;1.70;;;0.50;;
57241;SDS011;43095;53.302;5.786;2022-07-23T05:48:08;5.68;;;0.60;;
57241;SDS011;43095;53.302;5.786;2022-07-23T05:51:00;1.90;;;0.52;;
57241;SDS011;43095;53.302;5.786;2022-07-23T05:53:49;1.27;;;0.55;;
57241;SDS011;43095;53.302;5.786;2022-07-23T05:56:37;1.42;;;0.60;;
57241;SDS011;43095;53.302;5.786;2022-07-23T05:59:21;1.55;;;0.55;;
57241;SDS011;43095;53.302;5.786;2022-07-23T06:02:06;1.50;;;0.63;;
57241;SDS011;43095;53.302;5.786;2022-07-23T06:04:52;2.88;;;0.93;;
57241;SDS011;43095;53.302;5.786;2022-07-23T06:07:47;2.55;;;1.20;;
57241;SDS011;43095;53.302;5.786;2022-07-23T06:10:32;4.13;;;1.30;;
57241;SDS011;43095;53.302;5.786;2022-07-23T06:13:17;1.02;;;0.60;;
57241;SDS011;43095;53.302;5.786;2022-07-23T06:16:03;1.52;;;0.60;;
57241;SDS011;43095;53.302;5.786;2022-07-23T06:18:47;3.05;;;0.60;;
57241;SDS011;43095;53.302;5.786;2022-07-23T06:21:32;1.33;;;0.65;;
57241;SDS011;43095;53.302;5.786;2022-07-23T06:24:17;1.67;;;0.50;;
57241;SDS011;43095;53.302;5.786;2022-07-23T06:27:02;2.45;;;0.60;;
57241;SDS011;43095;53.302;5.786;2022-07-23T06:29:47;5.88;;;0.60;;
57241;SDS011;43095;53.302;5.786;2022-07-23T06:32:32;1.73;;;0.30;;
57241;SDS011;43095;53.302;5.786;2022-07-23T06:35:17;1.25;;;0.50;;
57241;SDS011;43095;53.302;5.786;2022-07-23T06:38:04;1.73;;;0.60;;
57241;SDS011;43095;53.302;5.786;2022-07-23T06:40:48;2.10;;;0.70;;
57241;SDS011;43095;53.302;5.786;2022-07-23T06:43:33;1.58;;;0.47;;
57241;SDS011;43095;53.302;5.786;2022-07-23T06:46:17;1.58;;;0.50;;
57241;SDS011;43095;53.302;5.786;2022-07-23T06:49:03;4.50;;;0.52;;
57241;SDS011;43095;53.302;5.786;2022-07-23T06:51:48;1.08;;;0.28;;
57241;SDS011;43095;53.302;5.786;2022-07-23T06:54:32;0.98;;;0.43;;
57241;SDS011;43095;53.302;5.786;2022-07-23T06:57:16;1.80;;;0.57;;
57241;SDS011;43095;53.302;5.786;2022-07-23T07:00:01;1.23;;;0.65;;
57241;SDS011;43095;53.302;5.786;2022-07-23T07:02:47;5.55;;;0.70;;
57241;SDS011;43095;53.302;5.786;2022-07-23T07:05:31;2.92;;;0.45;;
57241;SDS011;43095;53.302;5.786;2022-07-23T07:08:16;2.10;;;0.85;;
57241;SDS011;43095;53.302;5.786;2022-07-23T07:11:01;1.15;;;0.50;;
57241;SDS011;43095;53.302;5.786;2022-07-23T07:13:45;1.15;;;0.52;;
57241;SDS011;43095;53.302;5.786;2022-07-23T07:16:30;1.13;;;0.50;;
57241;SDS011;43095;53.302;5.786;2022-07-23T07:19:15;2.92;;;0.50;;
57241;SDS011;43095;53.302;5.786;2022-07-23T07:21:59;1.83;;;0.68;;
57241;SDS011;43095;53.302;5.786;2022-07-23T07:24:43;2.17;;;0.47;;
57241;SDS011;43095;53.302;5.786;2022-07-23T07:27:28;1.55;;;0.55;;
57241;SDS011;43095;53.302;5.786;2022-07-23T07:30:13;2.17;;;0.70;;
57241;SDS011;43095;53.302;5.786;2022-07-23T07:32:57;2.92;;;1.10;;
57241;SDS011;43095;53.302;5.786;2022-07-23T07:35:42;1.35;;;0.68;;
57241;SDS011;43095;53.302;5.786;2022-07-23T07:38:27;2.22;;;0.90;;
57241;SDS011;43095;53.302;5.786;2022-07-23T07:41:11;1.50;;;0.70;;
57241;SDS011;43095;53.302;5.786;2022-07-23T07:43:56;0.68;;;0.57;;
57241;SDS011;43095;53.302;5.786;2022-07-23T07:46:40;1.55;;;0.80;;
57241;SDS011;43095;53.302;5.786;2022-07-23T07:49:25;3.10;;;0.68;;
57241;SDS011;43095;53.302;5.786;2022-07-23T07:52:10;1.50;;;0.60;;
57241;SDS011;43095;53.302;5.786;2022-07-23T07:54:54;1.85;;;0.63;;
57241;SDS011;43095;53.302;5.786;2022-07-23T07:57:39;3.42;;;0.85;;
57241;SDS011;43095;53.302;5.786;2022-07-23T08:00:24;10.48;;;1.67;;
57241;SDS011;43095;53.302;5.786;2022-07-23T08:03:08;1.10;;;0.50;;
57241;SDS011;43095;53.302;5.786;2022-07-23T08:05:53;1.83;;;0.60;;
57241;SDS011;43095;53.302;5.786;2022-07-23T08:08:38;2.42;;;0.73;;
57241;SDS011;43095;53.302;5.786;2022-07-23T08:11:22;1.40;;;0.70;;
57241;SDS011;43095;53.302;5.786;2022-07-23T08:14:07;1.40;;;0.63;;
57241;SDS011;43095;53.302;5.786;2022-07-23T08:16:55;4.07;;;0.90;;
57241;SDS011;43095;53.302;5.786;2022-07-23T08:19:39;1.75;;;0.45;;
57241;SDS011;43095;53.302;5.786;2022-07-23T08:22:24;1.50;;;0.77;;
57241;SDS011;43095;53.302;5.786;2022-07-23T08:25:09;1.02;;;0.60;;
57241;SDS011;43095;53.302;5.786;2022-07-23T08:27:54;2.30;;;1.00;;
57241;SDS011;43095;53.302;5.786;2022-07-23T08:30:39;3.50;;;0.60;;
57241;SDS011;43095;53.302;5.786;2022-07-23T08:33:24;4.45;;;0.80;;
57241;SDS011;43095;53.302;5.786;2022-07-23T08:36:09;1.65;;;0.60;;
57241;SDS011;43095;53.302;5.786;2022-07-23T08:38:56;3.20;;;0.73;;
57241;SDS011;43095;53.302;5.786;2022-07-23T08:41:41;5.85;;;0.70;;
57241;SDS011;43095;53.302;5.786;2022-07-23T08:44:26;2.05;;;0.70;;
57241;SDS011;43095;53.302;5.786;2022-07-23T08:47:11;2.22;;;0.85;;
57241;SDS011;43095;53.302;5.786;2022-07-23T08:49:56;2.10;;;0.57;;
57241;SDS011;43095;53.302;5.786;2022-07-23T08:52:43;4.00;;;0.95;;
57241;SDS011;43095;53.302;5.786;2022-07-23T08:55:27;3.85;;;0.88;;
57241;SDS011;43095;53.302;5.786;2022-07-23T08:58:12;9.02;;;1.02;;
57241;SDS011;43095;53.302;5.786;2022-07-23T09:00:57;6.93;;;1.77;;
57241;SDS011;43095;53.302;5.786;2022-07-23T09:03:42;4.30;;;0.85;;
57241;SDS011;43095;53.302;5.786;2022-07-23T09:06:28;0.90;;;0.65;;
57241;SDS011;43095;53.302;5.786;2022-07-23T09:09:17;2.80;;;0.70;;
57241;SDS011;43095;53.302;5.786;2022-07-23T09:12:02;2.38;;;0.70;;
57241;SDS011;43095;53.302;5.786;2022-07-23T09:14:48;1.55;;;0.60;;
57241;SDS011;43095;53.302;5.786;2022-07-23T09:17:40;1.17;;;0.52;;
57241;SDS011;43095;53.302;5.786;2022-07-23T09:20:25;3.70;;;0.90;;
57241;SDS011;43095;53.302;5.786;2022-07-23T09:23:10;1.95;;;0.70;;
57241;SDS011;43095;53.302;5.786;2022-07-23T09:25:54;2.08;;;0.80;;
57241;SDS011;43095;53.302;5.786;2022-07-23T09:31:51;1.73;;;0.70;;
57241;SDS011;43095;53.302;5.786;2022-07-23T09:34:51;2.08;;;0.73;;
57241;SDS011;43095;53.302;5.786;2022-07-23T09:37:36;2.30;;;0.70;;
57241;SDS011;43095;53.302;5.786;2022-07-23T09:40:21;1.00;;;0.50;;
57241;SDS011;43095;53.302;5.786;2022-07-23T09:43:05;2.10;;;0.70;;
57241;SDS011;43095;53.302;5.786;2022-07-23T09:45:50;2.33;;;0.88;;
57241;SDS011;43095;53.302;5.786;2022-07-23T09:48:35;1.95;;;0.95;;
57241;SDS011;43095;53.302;5.786;2022-07-23T09:51:20;2.47;;;0.52;;
57241;SDS011;43095;53.302;5.786;2022-07-23T09:57:14;2.33;;;0.65;;
57241;SDS011;43095;53.302;5.786;2022-07-23T10:00:00;2.97;;;0.70;;
57241;SDS011;43095;53.302;5.786;2022-07-23T10:02:48;2.00;;;0.50;;
57241;SDS011;43095;53.302;5.786;2022-07-23T10:05:45;1.30;;;0.60;;
57241;SDS011;43095;53.302;5.786;2022-07-23T10:08:46;2.40;;;0.60;;
57241;SDS011;43095;53.302;5.786;2022-07-23T10:11:55;4.88;;;0.88;;
57241;SDS011;43095;53.302;5.786;2022-07-23T10:15:03;3.00;;;0.70;;
57241;SDS011;43095;53.302;5.786;2022-07-23T10:17:49;2.22;;;0.60;;
57241;SDS011;43095;53.302;5.786;2022-07-23T10:20:34;4.55;;;0.85;;
57241;SDS011;43095;53.302;5.786;2022-07-23T10:23:31;0.82;;;0.55;;
57241;SDS011;43095;53.302;5.786;2022-07-23T10:26:21;2.95;;;0.63;;
57241;SDS011;43095;53.302;5.786;2022-07-23T10:29:33;2.42;;;0.60;;
57241;SDS011;43095;53.302;5.786;2022-07-23T10:32:35;3.30;;;0.95;;
57241;SDS011;43095;53.302;5.786;2022-07-23T10:36:08;2.72;;;0.90;;
57241;SDS011;43095;53.302;5.786;2022-07-23T10:39:04;2.42;;;0.60;;
57241;SDS011;43095;53.302;5.786;2022-07-23T10:41:49;2.15;;;0.90;;
57241;SDS011;43095;53.302;5.786;2022-07-23T10:44:42;4.00;;;0.50;;
57241;SDS011;43095;53.302;5.786;2022-07-23T10:47:28;0.95;;;0.50;;
57241;SDS011;43095;53.302;5.786;2022-07-23T10:55:52;2.67;;;0.65;;
57241;SDS011;43095;53.302;5.786;2022-07-23T10:58:46;1.75;;;0.50;;
57241;SDS011;43095;53.302;5.786;2022-07-23T11:01:34;1.63;;;0.40;;
57241;SDS011;43095;53.302;5.786;2022-07-23T11:04:20;1.90;;;0.70;;
57241;SDS011;43095;53.302;5.786;2022-07-23T11:07:35;3.22;;;0.60;;
57241;SDS011;43095;53.302;5.786;2022-07-23T11:10:37;4.78;;;0.57;;
57241;SDS011;43095;53.302;5.786;2022-07-23T11:19:03;1.10;;;0.63;;
57241;SDS011;43095;53.302;5.786;2022-07-23T11:21:49;1.63;;;0.70;;
57241;SDS011;43095;53.302;5.786;2022-07-23T11:24:34;1.85;;;0.75;;
57241;SDS011;43095;53.302;5.786;2022-07-23T11:27:44;1.10;;;0.70;;
57241;SDS011;43095;53.302;5.786;2022-07-23T11:36:02;3.35;;;1.15;;
57241;SDS011;43095;53.302;5.786;2022-07-23T11:38:47;1.42;;;0.60;;
57241;SDS011;43095;53.302;5.786;2022-07-23T11:41:43;2.30;;;0.82;;
57241;SDS011;43095;53.302;5.786;2022-07-23T11:44:29;2.10;;;0.50;;
57241;SDS011;43095;53.302;5.786;2022-07-23T11:47:14;1.63;;;0.80;;
57241;SDS011;43095;53.302;5.786;2022-07-23T11:50:00;4.13;;;0.80;;
57241;SDS011;43095;53.302;5.786;2022-07-23T11:52:46;4.30;;;0.88;;
57241;SDS011;43095;53.302;5.786;2022-07-23T11:55:31;1.42;;;0.60;;
57241;SDS011;43095;53.302;5.786;2022-07-23T11:58:16;2.53;;;0.80;;
57241;SDS011;43095;53.302;5.786;2022-07-23T12:01:00;2.85;;;0.77;;
57241;SDS011;43095;53.302;5.786;2022-07-23T12:03:49;2.25;;;0.47;;
57241;SDS011;43095;53.302;5.786;2022-07-23T12:06:37;1.77;;;0.52;;
57241;SDS011;43095;53.302;5.786;2022-07-23T12:09:22;1.10;;;0.77;;
57241;SDS011;43095;53.302;5.786;2022-07-23T12:12:07;2.40;;;0.75;;
57241;SDS011;43095;53.302;5.786;2022-07-23T12:14:54;1.67;;;0.85;;
57241;SDS011;43095;53.302;5.786;2022-07-23T12:17:41;2.47;;;1.02;;
57241;SDS011;43095;53.302;5.786;2022-07-23T12:20:27;2.78;;;0.73;;
57241;SDS011;43095;53.302;5.786;2022-07-23T12:23:14;2.00;;;0.70;;
57241;SDS011;43095;53.302;5.786;2022-07-23T12:26:00;2.28;;;0.70;;
57241;SDS011;43095;53.302;5.786;2022-07-23T12:28:51;4.45;;;1.15;;
57241;SDS011;43095;53.302;5.786;2022-07-23T12:31:36;2.05;;;0.80;;
57241;SDS011;43095;53.302;5.786;2022-07-23T12:34:22;3.17;;;0.80;;
57241;SDS011;43095;53.302;5.786;2022-07-23T12:37:07;1.67;;;0.80;;
57241;SDS011;43095;53.302;5.786;2022-07-23T12:39:52;3.45;;;1.17;;
57241;SDS011;43095;53.302;5.786;2022-07-23T12:42:42;2.63;;;1.05;;
57241;SDS011;43095;53.302;5.786;2022-07-23T12:45:28;2.55;;;0.75;;
57241;SDS011;43095;53.302;5.786;2022-07-23T12:48:29;3.20;;;0.77;;
57241;SDS011;43095;53.302;5.786;2022-07-23T12:51:21;1.63;;;0.95;;
57241;SDS011;43095;53.302;5.786;2022-07-23T12:54:07;2.33;;;0.77;;
57241;SDS011;43095;53.302;5.786;2022-07-23T12:56:53;2.60;;;0.90;;
57241;SDS011;43095;53.302;5.786;2022-07-23T12:59:37;2.65;;;0.80;;
57241;SDS011;43095;53.302;5.786;2022-07-23T13:02:22;2.92;;;0.90;;
57241;SDS011;43095;53.302;5.786;2022-07-23T13:05:06;1.58;;;0.70;;
57241;SDS011;43095;53.302;5.786;2022-07-23T13:07:51;1.60;;;0.80;;
57241;SDS011;43095;53.302;5.786;2022-07-23T13:10:36;2.85;;;0.80;;
57241;SDS011;43095;53.302;5.786;2022-07-23T13:13:21;1.80;;;0.80;;
57241;SDS011;43095;53.302;5.786;2022-07-23T13:16:07;3.47;;;1.00;;
57241;SDS011;43095;53.302;5.786;2022-07-23T13:18:52;1.23;;;0.70;;
57241;SDS011;43095;53.302;5.786;2022-07-23T13:21:36;1.13;;;0.75;;
57241;SDS011;43095;53.302;5.786;2022-07-23T13:24:21;4.28;;;0.90;;
57241;SDS011;43095;53.302;5.786;2022-07-23T13:27:06;1.27;;;0.68;;
57241;SDS011;43095;53.302;5.786;2022-07-23T13:29:52;3.75;;;1.17;;
57241;SDS011;43095;53.302;5.786;2022-07-23T13:32:36;1.80;;;0.80;;
57241;SDS011;43095;53.302;5.786;2022-07-23T13:35:21;3.17;;;0.90;;
57241;SDS011;43095;53.302;5.786;2022-07-23T13:38:06;2.78;;;0.80;;
57241;SDS011;43095;53.302;5.786;2022-07-23T13:40:53;1.65;;;0.80;;
57241;SDS011;43095;53.302;5.786;2022-07-23T13:43:38;1.52;;;0.80;;
57241;SDS011;43095;53.302;5.786;2022-07-23T13:46:23;4.03;;;1.00;;
57241;SDS011;43095;53.302;5.786;2022-07-23T13:49:08;2.22;;;1.17;;
57241;SDS011;43095;53.302;5.786;2022-07-23T13:51:52;2.75;;;1.02;;
57241;SDS011;43095;53.302;5.786;2022-07-23T13:54:37;3.60;;;0.98;;
57241;SDS011;43095;53.302;5.786;2022-07-23T13:57:21;4.05;;;1.20;;
57241;SDS011;43095;53.302;5.786;2022-07-23T14:00:06;1.60;;;1.10;;
57241;SDS011;43095;53.302;5.786;2022-07-23T14:02:53;2.20;;;1.13;;
57241;SDS011;43095;53.302;5.786;2022-07-23T14:05:38;1.90;;;1.08;;
57241;SDS011;43095;53.302;5.786;2022-07-23T14:08:23;2.88;;;1.02;;
57241;SDS011;43095;53.302;5.786;2022-07-23T14:11:08;1.75;;;1.00;;
57241;SDS011;43095;53.302;5.786;2022-07-23T14:13:52;2.30;;;0.90;;
57241;SDS011;43095;53.302;5.786;2022-07-23T14:16:37;2.10;;;0.85;;
57241;SDS011;43095;53.302;5.786;2022-07-23T14:19:22;4.10;;;1.33;;
57241;SDS011;43095;53.302;5.786;2022-07-23T14:22:07;4.57;;;1.33;;
57241;SDS011;43095;53.302;5.786;2022-07-23T14:24:51;6.28;;;1.85;;
57241;SDS011;43095;53.302;5.786;2022-07-23T14:27:36;1.40;;;0.85;;
57241;SDS011;43095;53.302;5.786;2022-07-23T14:30:23;2.92;;;0.93;;
57241;SDS011;43095;53.302;5.786;2022-07-23T14:33:08;1.85;;;1.10;;
57241;SDS011;43095;53.302;5.786;2022-07-23T14:35:52;3.28;;;0.93;;
57241;SDS011;43095;53.302;5.786;2022-07-23T14:38:37;3.03;;;1.27;;
57241;SDS011;43095;53.302;5.786;2022-07-23T14:41:22;2.17;;;0.90;;
57241;SDS011;43095;53.302;5.786;2022-07-23T14:44:06;4.28;;;0.88;;
57241;SDS011;43095;53.302;5.786;2022-07-23T14:46:51;2.70;;;1.02;;
57241;SDS011;43095;53.302;5.786;2022-07-23T14:49:35;3.58;;;1.23;;
57241;SDS011;43095;53.302;5.786;2022-07-23T14:52:20;3.42;;;1.00;;
57241;SDS011;43095;53.302;5.786;2022-07-23T14:55:04;1.58;;;1.05;;
57241;SDS011;43095;53.302;5.786;2022-07-23T14:57:49;2.15;;;0.85;;
57241;SDS011;43095;53.302;5.786;2022-07-23T15:00:34;2.40;;;1.10;;
57241;SDS011;43095;53.302;5.786;2022-07-23T15:03:18;2.30;;;1.15;;
57241;SDS011;43095;53.302;5.786;2022-07-23T15:06:03;4.18;;;1.00;;
57241;SDS011;43095;53.302;5.786;2022-07-23T15:08:49;2.28;;;1.00;;
57241;SDS011;43095;53.302;5.786;2022-07-23T15:11:33;1.60;;;1.00;;
57241;SDS011;43095;53.302;5.786;2022-07-23T15:14:20;2.53;;;1.17;;
57241;SDS011;43095;53.302;5.786;2022-07-23T15:17:05;1.63;;;0.98;;
57241;SDS011;43095;53.302;5.786;2022-07-23T15:19:50;5.65;;;1.17;;
57241;SDS011;43095;53.302;5.786;2022-07-23T15:22:35;4.45;;;1.25;;
57241;SDS011;43095;53.302;5.786;2022-07-23T15:25:19;2.35;;;0.75;;
57241;SDS011;43095;53.302;5.786;2022-07-23T15:28:04;4.22;;;1.20;;
57241;SDS011;43095;53.302;5.786;2022-07-23T15:30:49;3.10;;;1.15;;
57241;SDS011;43095;53.302;5.786;2022-07-23T15:33:35;4.97;;;1.40;;
57241;SDS011;43095;53.302;5.786;2022-07-23T15:36:20;1.85;;;1.20;;
57241;SDS011;43095;53.302;5.786;2022-07-23T15:39:05;1.80;;;1.10;;
57241;SDS011;43095;53.302;5.786;2022-07-23T15:41:50;2.50;;;0.98;;
57241;SDS011;43095;53.302;5.786;2022-07-23T15:44:34;2.95;;;1.20;;
57241;SDS011;43095;53.302;5.786;2022-07-23T15:47:19;4.38;;;1.48;;
57241;SDS011;43095;53.302;5.786;2022-07-23T15:50:05;2.88;;;1.48;;
57241;SDS011;43095;53.302;5.786;2022-07-23T15:52:50;1.42;;;0.98;;
57241;SDS011;43095;53.302;5.786;2022-07-23T15:55:34;1.88;;;1.20;;
57241;SDS011;43095;53.302;5.786;2022-07-23T15:58:19;2.17;;;1.33;;
57241;SDS011;43095;53.302;5.786;2022-07-23T16:01:04;1.65;;;1.35;;
57241;SDS011;43095;53.302;5.786;2022-07-23T16:03:50;2.95;;;1.30;;
57241;SDS011;43095;53.302;5.786;2022-07-23T16:06:35;3.72;;;1.20;;
57241;SDS011;43095;53.302;5.786;2022-07-23T16:09:19;2.15;;;1.20;;
57241;SDS011;43095;53.302;5.786;2022-07-23T16:12:04;2.15;;;1.30;;
57241;SDS011;43095;53.302;5.786;2022-07-23T16:14:49;3.47;;;1.00;;
57241;SDS011;43095;53.302;5.786;2022-07-23T16:17:33;1.52;;;1.10;;
57241;SDS011;43095;53.302;5.786;2022-07-23T16:20:18;4.15;;;1.88;;
57241;SDS011;43095;53.302;5.786;2022-07-23T16:23:03;2.40;;;1.20;;
57241;SDS011;43095;53.302;5.786;2022-07-23T16:25:48;2.58;;;1.45;;
57241;SDS011;43095;53.302;5.786;2022-07-23T16:28:33;4.15;;;1.10;;
57241;SDS011;43095;53.302;5.786;2022-07-23T16:31:18;1.73;;;1.00;;
57241;SDS011;43095;53.302;5.786;2022-07-23T16:34:02;2.33;;;1.30;;
57241;SDS011;43095;53.302;5.786;2022-07-23T16:36:47;5.00;;;2.03;;
57241;SDS011;43095;53.302;5.786;2022-07-23T16:39:31;4.43;;;1.55;;
57241;SDS011;43095;53.302;5.786;2022-07-23T16:42:16;4.20;;;1.48;;
57241;SDS011;43095;53.302;5.786;2022-07-23T16:45:01;3.28;;;1.50;;
57241;SDS011;43095;53.302;5.786;2022-07-23T16:47:46;3.05;;;1.10;;
57241;SDS011;43095;53.302;5.786;2022-07-23T16:50:30;1.98;;;1.25;;
57241;SDS011;43095;53.302;5.786;2022-07-23T16:53:15;3.53;;;1.45;;
57241;SDS011;43095;53.302;5.786;2022-07-23T16:56:00;2.20;;;1.25;;
57241;SDS011;43095;53.302;5.786;2022-07-23T16:58:44;2.85;;;1.10;;
57241;SDS011;43095;53.302;5.786;2022-07-23T17:01:29;2.72;;;1.20;;